createdAt,value
2019-05-29T00:02:29.431Z,1.50
2019-05-29T00:07:38.359Z,0.70
2019-05-29T00:12:47.283Z,1.29
2019-05-29T00:17:56.223Z,1.24
2019-05-29T00:23:06.328Z,0.50
2019-05-29T00:28:14.752Z,0.63
2019-05-29T00:33:22.042Z,1.12
2019-05-29T00:38:30.975Z,1.90
2019-05-29T00:43:39.978Z,1.96
2019-05-29T00:48:48.912Z,2.67
2019-05-29T00:53:57.836Z,3.01
2019-05-29T00:59:06.795Z,1.93
2019-05-29T01:04:15.768Z,1.60
2019-05-29T01:09:24.715Z,2.78
2019-05-29T01:14:47.243Z,4.36
2019-05-29T01:19:42.426Z,0.76
2019-05-29T01:24:51.354Z,2.02
2019-05-29T01:30:00.383Z,1.38
2019-05-29T01:35:09.319Z,1.23
2019-05-29T01:40:23.150Z,1.45
2019-05-29T01:45:27.642Z,1.44
2019-05-29T01:50:35.214Z,1.12
2019-05-29T01:55:44.127Z,2.52
2019-05-29T02:00:53.063Z,0.91
2019-05-29T02:06:01.994Z,1.92
2019-05-29T02:11:10.918Z,1.24
2019-05-29T02:16:20.675Z,1.56
2019-05-29T02:21:28.520Z,0.82
2019-05-29T02:26:37.395Z,2.89
2019-05-29T02:31:46.306Z,1.26
2019-05-29T02:36:56.615Z,1.60
2019-05-29T02:42:03.755Z,1.73
2019-05-29T02:47:12.686Z,1.37
2019-05-29T02:52:21.962Z,1.55
2019-05-29T02:57:30.972Z,0.62
2019-05-29T03:02:38.579Z,1.94
2019-05-29T03:07:47.583Z,1.14
2019-05-29T03:12:56.505Z,1.03
2019-05-29T03:18:05.503Z,1.08
2019-05-29T03:23:14.432Z,0.97
2019-05-29T03:28:21.988Z,0.56
2019-05-29T03:33:38.056Z,1.86
2019-05-29T03:38:39.360Z,1.23
2019-05-29T03:43:48.428Z,2.82
2019-05-29T03:48:57.372Z,0.71
2019-05-29T03:54:06.375Z,1.16
2019-05-29T03:59:15.296Z,1.73
2019-05-29T04:04:24.302Z,1.67
2019-05-29T04:09:33.415Z,1.86
2019-05-29T04:14:42.163Z,1.77
2019-05-29T04:19:51.105Z,1.08
2019-05-29T04:25:00.073Z,1.65
2019-05-29T04:30:09.030Z,3.03
2019-05-29T04:35:17.959Z,2.56
2019-05-29T04:40:28.505Z,2.01
2019-05-29T04:45:37.558Z,1.96
2019-05-29T04:50:43.927Z,1.96
2019-05-29T04:55:52.947Z,2.19
2019-05-29T05:01:01.892Z,2.24
2019-05-29T05:06:10.839Z,2.56
2019-05-29T05:11:19.830Z,1.76
2019-05-29T05:16:29.724Z,2.18
2019-05-29T05:21:38.090Z,2.56
2019-05-29T05:26:45.671Z,4.60
2019-05-29T05:31:54.644Z,3.51
2019-05-29T05:37:03.623Z,3.08
2019-05-29T05:42:12.573Z,3.77
2019-05-29T05:47:21.738Z,4.02
2019-05-29T05:52:31.195Z,2.45
2019-05-29T05:57:39.743Z,3.56
2019-05-29T06:02:47.787Z,3.42
2019-05-29T06:07:56.708Z,2.53
2019-05-29T06:13:05.655Z,4.35
2019-05-29T06:18:21.090Z,2.28
2019-05-29T06:23:23.095Z,2.00
2019-05-29T06:28:33.012Z,4.62
2019-05-29T06:33:41.514Z,2.55
2019-05-29T06:38:48.927Z,3.37
2019-05-29T06:43:57.864Z,2.22
2019-05-29T06:49:06.887Z,2.42
2019-05-29T06:54:15.792Z,3.54
2019-05-29T06:59:24.815Z,3.17
2019-05-29T07:04:33.741Z,2.27
2019-05-29T07:09:43.086Z,1.89
2019-05-29T07:14:51.906Z,6.06
2019-05-29T07:20:03.704Z,2.52
2019-05-29T07:25:09.359Z,3.26
2019-05-29T07:30:18.288Z,5.55
2019-05-29T07:35:27.231Z,3.39
2019-05-29T07:40:36.184Z,3.56
2019-05-29T07:45:46.111Z,3.98
2019-05-29T07:51:06.345Z,5.41
2019-05-29T07:56:02.140Z,4.42
2019-05-29T08:01:13.669Z,2.55
2019-05-29T08:06:19.549Z,3.59
2019-05-29T08:11:28.472Z,3.08
2019-05-29T08:16:37.526Z,2.29
2019-05-29T08:21:46.564Z,2.33
2019-05-29T08:26:55.447Z,1.17
2019-05-29T08:32:04.382Z,2.32
2019-05-29T08:37:13.407Z,3.97
2019-05-29T08:42:23.786Z,4.16
2019-05-29T08:47:30.864Z,2.24
2019-05-29T08:52:39.779Z,2.90
2019-05-29T08:57:48.714Z,3.87
2019-05-29T09:02:57.724Z,5.26
2019-05-29T09:08:06.676Z,3.12
2019-05-29T09:13:15.631Z,2.05
2019-05-29T09:18:25.665Z,2.47
2019-05-29T09:23:33.079Z,2.75
2019-05-29T09:28:42.023Z,3.92
2019-05-29T09:33:50.986Z,3.15
2019-05-29T09:38:59.901Z,4.13
2019-05-29T09:44:09.221Z,3.50
2019-05-29T09:49:18.379Z,3.79
2019-05-29T09:54:27.126Z,3.15
2019-05-29T09:59:36.204Z,2.04
2019-05-29T10:04:45.380Z,3.05
2019-05-29T10:09:54.983Z,5.34
2019-05-29T10:15:04.339Z,3.10
2019-05-29T10:20:11.710Z,2.82
2019-05-29T10:25:20.668Z,3.27
2019-05-29T10:30:29.684Z,2.24
2019-05-29T10:35:38.643Z,2.39
2019-05-29T10:40:57.132Z,2.89
2019-05-29T10:45:56.272Z,3.43
2019-05-29T10:51:05.202Z,2.30
2019-05-29T10:56:14.179Z,2.12
2019-05-29T11:01:23.123Z,2.04
2019-05-29T11:06:32.179Z,2.28
2019-05-29T11:11:41.103Z,3.40
2019-05-29T11:16:50.935Z,2.12
2019-05-29T11:22:01.726Z,2.64
2019-05-29T11:27:07.120Z,2.54
2019-05-29T11:32:16.086Z,2.32
2019-05-29T11:37:25.041Z,2.59
2019-05-29T11:42:33.974Z,2.54
2019-05-29T11:47:42.914Z,2.18
2019-05-29T11:52:52.915Z,5.70
2019-05-29T11:57:51.931Z,2.21
2019-05-29T12:03:01.898Z,2.89
2019-05-29T12:08:10.860Z,2.81
2019-05-29T12:13:20.923Z,3.93
2019-05-29T12:18:23.609Z,2.78
2019-05-29T12:23:28.368Z,3.24
2019-05-29T12:28:37.539Z,3.03
2019-05-29T12:33:46.498Z,2.94
2019-05-29T12:38:55.552Z,2.12
2019-05-29T12:44:04.495Z,2.44
2019-05-29T12:49:13.624Z,2.28
2019-05-29T12:54:22.563Z,1.61
2019-05-29T12:59:31.543Z,2.83
2019-05-29T13:05:05.943Z,2.19
2019-05-29T13:09:49.113Z,3.57
2019-05-29T13:14:58.563Z,1.72
2019-05-29T13:20:20.197Z,4.04
2019-05-29T13:25:15.548Z,3.47
2019-05-29T13:30:24.525Z,2.72
2019-05-29T13:35:33.471Z,2.08
2019-05-29T13:40:42.717Z,2.51
2019-05-29T13:45:51.473Z,2.75
2019-05-29T13:51:01.592Z,3.51
2019-05-29T13:56:08.901Z,5.22
2019-05-29T14:01:17.884Z,3.37
2019-05-29T14:06:26.835Z,4.40
2019-05-29T14:11:35.875Z,3.40
2019-05-29T14:16:44.805Z,4.19
2019-05-29T14:21:53.821Z,2.64
2019-05-29T14:27:03.385Z,4.15
2019-05-29T14:32:11.223Z,4.94
2019-05-29T14:37:20.155Z,3.94
2019-05-29T14:42:29.117Z,2.71
2019-05-29T14:47:38.011Z,3.79
2019-05-29T14:52:46.999Z,3.89
2019-05-29T14:57:56.096Z,3.04
2019-05-29T15:03:05.265Z,3.33
2019-05-29T15:08:14.231Z,4.19
2019-05-29T15:13:22.956Z,4.33
2019-05-29T15:18:31.902Z,2.42
2019-05-29T15:23:40.853Z,3.97
2019-05-29T15:28:49.783Z,3.37
2019-05-29T15:33:58.779Z,3.10
2019-05-29T15:39:08.507Z,4.65
2019-05-29T15:44:17.255Z,4.54
2019-05-29T15:49:24.766Z,3.62
2019-05-29T15:54:33.752Z,3.48
2019-05-29T15:59:42.691Z,4.90
2019-05-29T16:04:51.642Z,3.82
2019-05-29T16:10:00.553Z,3.29
2019-05-29T16:15:11.039Z,4.95
2019-05-29T16:20:18.632Z,3.30
2019-05-29T16:25:39.309Z,4.63
2019-05-29T16:30:35.017Z,7.06
2019-05-29T16:35:44.006Z,4.27
2019-05-29T16:40:52.924Z,6.47
2019-05-29T16:46:01.944Z,5.88
2019-05-29T16:51:10.869Z,6.11
2019-05-29T16:56:21.124Z,5.63
2019-05-29T17:01:28.332Z,4.56
2019-05-29T17:06:37.283Z,5.74
2019-05-29T17:11:46.235Z,4.44
2019-05-29T17:16:55.205Z,6.50
2019-05-29T17:22:04.139Z,5.83
2019-05-29T17:27:13.091Z,4.55
2019-05-29T17:32:23.130Z,4.27
2019-05-29T17:37:30.540Z,4.95
2019-05-29T17:42:39.504Z,5.02
2019-05-29T17:47:48.470Z,4.21
2019-05-29T17:52:57.415Z,4.55
2019-05-29T17:58:06.375Z,3.56
2019-05-29T18:03:16.071Z,3.80
2019-05-29T18:08:25.037Z,4.12
2019-05-29T18:13:32.245Z,3.59
2019-05-29T18:18:41.235Z,3.16
2019-05-29T18:24:02.227Z,4.51
2019-05-29T18:28:51.183Z,3.06
2019-05-29T18:34:00.108Z,2.61
2019-05-29T18:39:09.105Z,3.18
2019-05-29T18:44:18.023Z,2.67
2019-05-29T18:49:27.039Z,4.96
2019-05-29T18:54:36.004Z,4.31
2019-05-29T18:59:44.935Z,4.14
2019-05-29T19:04:53.943Z,3.84
2019-05-29T19:10:06.774Z,4.91
2019-05-29T19:15:12.903Z,4.00
2019-05-29T19:20:22.278Z,6.26
2019-05-29T19:25:31.032Z,6.52
2019-05-29T19:30:39.999Z,5.59
2019-05-29T19:35:48.964Z,6.59
2019-05-29T19:40:58.100Z,5.92
2019-05-29T19:46:07.537Z,6.54
2019-05-29T19:51:16.551Z,5.46
2019-05-29T19:56:25.620Z,7.09
2019-05-29T20:01:37.495Z,7.06
2019-05-29T20:06:42.895Z,6.73
2019-05-29T20:11:51.859Z,5.92
2019-05-29T20:17:00.797Z,8.56
2019-05-29T20:22:09.727Z,7.57
2019-05-29T20:27:18.695Z,7.21
2019-05-29T20:32:27.636Z,7.81
2019-05-29T20:37:36.606Z,10.52
2019-05-29T20:42:45.527Z,7.29
2019-05-29T20:47:54.531Z,7.46
2019-05-29T20:53:03.564Z,5.77
2019-05-29T20:58:24.110Z,7.30
2019-05-29T21:03:21.072Z,6.31
2019-05-29T21:08:30.060Z,7.28
2019-05-29T21:13:39.431Z,4.63
2019-05-29T21:18:47.412Z,4.94
2019-05-29T21:23:56.384Z,5.84
2019-05-29T21:29:05.303Z,4.96
2019-05-29T21:34:14.329Z,6.47
2019-05-29T21:39:23.248Z,8.36
2019-05-29T21:44:32.189Z,6.39
2019-05-29T21:49:41.194Z,6.61
2019-05-29T21:54:50.187Z,6.30
2019-05-29T21:59:59.142Z,5.27
2019-05-29T22:05:08.402Z,6.60
2019-05-29T22:10:18.102Z,9.43
2019-05-29T22:15:27.115Z,6.74
2019-05-29T22:20:36.026Z,6.61
2019-05-29T22:25:44.995Z,6.05
2019-05-29T22:30:55.249Z,5.77
2019-05-29T22:36:02.595Z,6.02
2019-05-29T22:41:11.534Z,7.43
2019-05-29T22:46:20.468Z,7.89
2019-05-29T22:51:29.412Z,5.72
2019-05-29T22:56:38.346Z,4.91
2019-05-29T23:01:47.327Z,6.80
2019-05-29T23:06:56.384Z,6.05
2019-05-29T23:12:05.251Z,6.41
2019-05-29T23:17:14.172Z,6.08
2019-05-29T23:22:24.619Z,7.25
2019-05-29T23:27:31.663Z,5.37
2019-05-29T23:32:40.669Z,4.47
2019-05-29T23:37:49.596Z,5.73
2019-05-29T23:42:59.464Z,8.25
2019-05-29T23:48:07.219Z,11.09
2019-05-29T23:53:16.247Z,5.97
2019-05-29T23:58:25.187Z,8.04
